Messwerte Bedford

Temperatur

Temperatur
°C
1623736800 2.00 2.00 18
1623740400 3.00 3.00 18
1623744000 4.00 4.00 18
1623747600 5.00 5.00 17
1623751200 6.00 6.00 17
1623754800 7.00 7.00 17
1623758400 8.00 8.00 18
1623762000 9.00 9.00
1623765600 10.00 10.00 19
1623769200 11.00 11.00 20
1623772800 12.00 12.00 20
1623776400 13.00 13.00 23
1623780000 14.00 14.00 24
1623783600 15.00 15.00 25
1623787200 16.00 16.00 24
1623790800 17.00 17.00 26
1623794400 18.00 18.00 24
1623798000 19.00 19.00 23
1623801600 20.00 20.00 22
1623805200 21.00 21.00 19
1623808800 22.00 22.00 18
1623812400 23.00 23.00 16
1623816000 0.00 0.00 16
1623819600 1.00 1.00 15

Aktuellste Messwerte

Wettercharakter
Wetter: klar
Temperatur
15 °C
Feuchtigkeit
94 %
Wind
5 km/hWindrichtung: West
Luftdruck
1005 hPa
Messzeit: 16. Juni 2021, 2.00Datenquelle: METAR

Weitere Messstationen in der Nähe

Messstation Temperatur Entfernung
Boston 18 °C 23 km
Lawrence 16 °C 30 km
East Milton 16 °C 32 km
Norwood 13 °C 32 km
Beverly 17 °C 33 km
Nashua 16 °C 39 km
Fitchburg 16 °C 40 km

Wind

Windrichtung Böen Mittelwind
° km/h km/h
1623736800 2.00 1.00 - 2.00 0
1623740400 3.00 2.00 - 3.00 130° 5
1623744000 4.00 3.00 - 4.00 180° 5
1623747600 5.00 4.00 - 5.00 140° 5
1623751200 6.00 5.00 - 6.00 110° 0
1623754800 7.00 6.00 - 7.00 0
1623758400 8.00 7.00 - 8.00 0
1623762000 9.00 8.00 - 9.00
1623765600 10.00 9.00 - 10.00 240° 5
1623769200 11.00 10.00 - 11.00 0
1623772800 12.00 11.00 - 12.00 5
1623776400 13.00 12.00 - 13.00 80° 5
1623780000 14.00 13.00 - 14.00 210° 10
1623783600 15.00 14.00 - 15.00 200° 10
1623787200 16.00 15.00 - 16.00 230° 5
1623790800 17.00 16.00 - 17.00 190° 20
1623794400 18.00 17.00 - 18.00 140° 15
1623798000 19.00 18.00 - 19.00 110° 5
1623801600 20.00 19.00 - 20.00 10° 30 15
1623805200 21.00 20.00 - 21.00 60° 5
1623808800 22.00 21.00 - 22.00 60° 5
1623812400 23.00 22.00 - 23.00
1623816000 0.00 23.00 - 0.00 0
1623819600 1.00 0.00 - 1.00 0

Ihre Wetterstation

Fehlt Ihre Wetterstation auf unserem Portal?

Schreiben Sie an network@meteonews.ch

Klima

Wann ist es am wärmsten? Wann regnet es am wenigsten? Unsere Klimadaten geben Auskunft.